Terminal Aerodrome Forecast
Issued by NWS

Home | Current Version | Previous Version | Text Only | Print | Product List | Glossary On
Versions: 1 2 3 4 5 6 7 8 9 10 11 12 13 14
850
FTUS46 KLOX 161145
TAFVNY
TAF
KVNY 161145Z 1612/1712 VRB03KT P6SM BKN250
     FM162000 01007KT P6SM SCT250
     FM170500 01015G25KT P6SM SCT250
     FM170900 01022G32KT P6SM SKC=

USA.gov is the U.S. government's official web portal to all federal, state and local government web resources and services.